createdAt,value
2017-07-26T00:01:14.952Z,92.60
2017-07-26T00:03:42.564Z,91.97
2017-07-26T00:06:10.171Z,90.94
2017-07-26T00:08:37.873Z,89.69
2017-07-26T00:11:05.530Z,90.45
2017-07-26T00:13:33.150Z,91.07
2017-07-26T00:16:00.821Z,90.82
2017-07-26T00:18:28.456Z,90.80
2017-07-26T00:20:56.095Z,90.89
2017-07-26T00:23:23.774Z,91.41
2017-07-26T00:25:51.389Z,90.92
2017-07-26T00:28:19.074Z,91.31
2017-07-26T00:30:46.744Z,91.71
2017-07-26T00:33:14.359Z,91.89
2017-07-26T00:35:41.985Z,90.68
2017-07-26T00:38:09.678Z,90.84
2017-07-26T00:40:37.330Z,91.31
2017-07-26T00:43:04.953Z,91.36
2017-07-26T00:45:32.617Z,91.46
2017-07-26T00:48:00.237Z,91.68
2017-07-26T00:50:27.860Z,91.86
2017-07-26T00:52:55.530Z,92.49
2017-07-26T00:55:23.153Z,91.85
2017-07-26T00:57:50.777Z,91.57
2017-07-26T01:00:18.461Z,91.46
2017-07-26T01:02:46.073Z,90.83
2017-07-26T01:05:13.683Z,90.77
2017-07-26T01:07:41.373Z,91.07
2017-07-26T01:10:09.007Z,91.65
2017-07-26T01:12:36.641Z,92.15
2017-07-26T01:15:04.327Z,92.49
2017-07-26T01:17:31.963Z,92.72
2017-07-26T01:19:59.582Z,92.84
2017-07-26T01:22:27.459Z,92.78
2017-07-26T01:24:55.778Z,92.75
2017-07-26T01:27:23.454Z,92.51
2017-07-26T01:29:51.157Z,92.28
2017-07-26T01:32:18.796Z,92.12
2017-07-26T01:34:46.430Z,91.42
2017-07-26T01:37:14.111Z,91.86
2017-07-26T01:39:41.750Z,92.19
2017-07-26T01:42:09.369Z,91.84
2017-07-26T01:44:37.053Z,92.05
2017-07-26T01:47:10.120Z,90.97
2017-07-26T01:49:37.821Z,89.87
2017-07-26T01:52:05.450Z,90.18
2017-07-26T01:54:33.055Z,90.68
2017-07-26T01:57:00.735Z,90.43
2017-07-26T01:59:28.367Z,90.62
2017-07-26T02:01:55.984Z,91.51
2017-07-26T02:04:23.692Z,91.90
2017-07-26T02:06:51.311Z,91.86
2017-07-26T02:09:18.957Z,92.38
2017-07-26T02:11:46.643Z,92.09
2017-07-26T02:14:14.255Z,92.33
2017-07-26T02:16:41.879Z,92.94
2017-07-26T02:19:09.577Z,93.66
2017-07-26T02:21:37.197Z,93.08
2017-07-26T02:24:04.823Z,92.83
2017-07-26T02:26:32.501Z,92.29
2017-07-26T02:29:00.136Z,90.90
2017-07-26T02:31:27.754Z,90.40
2017-07-26T02:33:55.443Z,90.77
2017-07-26T02:36:23.072Z,91.26
2017-07-26T02:38:50.706Z,91.81
2017-07-26T02:41:18.390Z,92.09
2017-07-26T02:43:46.009Z,92.13
2017-07-26T02:46:13.652Z,91.92
2017-07-26T02:48:41.315Z,91.76
2017-07-26T02:51:08.950Z,91.60
2017-07-26T02:53:36.584Z,91.73
2017-07-26T02:56:04.276Z,92.00
2017-07-26T02:58:31.887Z,92.44
2017-07-26T03:00:59.505Z,92.54
2017-07-26T03:03:27.181Z,92.75
2017-07-26T03:05:54.813Z,92.69
2017-07-26T03:08:22.437Z,92.85
2017-07-26T03:10:50.259Z,92.05
2017-07-26T03:13:17.866Z,92.01
2017-07-26T03:15:45.485Z,91.30
2017-07-26T03:18:13.171Z,91.93
2017-07-26T03:20:40.793Z,90.96
2017-07-26T03:23:08.420Z,90.47
2017-07-26T03:25:36.102Z,90.28
2017-07-26T03:28:03.742Z,89.53
2017-07-26T03:30:31.371Z,89.58
2017-07-26T03:32:59.057Z,89.59
2017-07-26T03:35:26.673Z,88.48
2017-07-26T03:37:54.339Z,88.96
2017-07-26T03:40:22.016Z,89.35
2017-07-26T03:42:49.625Z,89.46
2017-07-26T03:45:17.236Z,89.58
2017-07-26T03:47:44.915Z,89.31
2017-07-26T03:50:12.537Z,89.51
2017-07-26T03:52:40.156Z,88.54
2017-07-26T03:55:07.867Z,86.72
2017-07-26T03:57:35.522Z,83.60
2017-07-26T04:00:03.172Z,82.65
2017-07-26T04:02:30.860Z,84.42
2017-07-26T04:04:58.479Z,85.62
2017-07-26T04:07:26.100Z,86.28
2017-07-26T04:09:53.945Z,86.31
2017-07-26T04:12:21.567Z,85.80
2017-07-26T04:14:49.213Z,85.00
2017-07-26T04:17:16.899Z,83.30
2017-07-26T04:19:44.667Z,83.18
2017-07-26T04:22:12.291Z,82.99
2017-07-26T04:24:39.970Z,82.86
2017-07-26T04:27:07.601Z,82.83
2017-07-26T04:29:35.228Z,82.45
2017-07-26T04:32:02.911Z,82.47
2017-07-26T04:34:30.535Z,81.79
2017-07-26T04:36:58.152Z,81.66
2017-07-26T04:39:25.850Z,80.86
2017-07-26T04:41:53.499Z,80.26
2017-07-26T04:44:21.124Z,80.05
2017-07-26T04:46:48.824Z,80.05
2017-07-26T04:49:16.443Z,80.17
2017-07-26T04:51:44.067Z,79.65
2017-07-26T04:54:11.748Z,79.26
2017-07-26T04:56:39.373Z,78.38
2017-07-26T04:59:06.987Z,75.19
2017-07-26T05:01:34.660Z,73.28
2017-07-26T05:04:02.272Z,72.67
2017-07-26T05:06:29.890Z,72.60
2017-07-26T05:08:57.554Z,71.88
2017-07-26T05:11:25.233Z,71.22
2017-07-26T05:13:52.837Z,67.86
2017-07-26T05:16:20.523Z,64.51
2017-07-26T05:18:48.135Z,59.76
2017-07-26T05:21:15.746Z,53.82
2017-07-26T05:23:43.427Z,52.68
2017-07-26T05:26:11.042Z,51.10
2017-07-26T05:28:38.635Z,45.46
2017-07-26T05:31:06.312Z,42.14
2017-07-26T05:33:33.930Z,38.88
2017-07-26T05:36:01.535Z,38.51
2017-07-26T05:38:29.243Z,37.26
2017-07-26T05:40:56.877Z,36.80
2017-07-26T05:43:24.470Z,35.35
2017-07-26T05:45:52.127Z,37.07
2017-07-26T05:48:19.742Z,35.94
2017-07-26T05:50:47.420Z,34.33
2017-07-26T05:53:15.096Z,33.03
2017-07-26T05:55:42.720Z,33.18
2017-07-26T05:58:10.337Z,33.34
2017-07-26T06:00:37.981Z,33.09
2017-07-26T06:03:05.595Z,32.53
2017-07-26T06:05:33.217Z,32.26
2017-07-26T06:08:00.881Z,31.54
2017-07-26T06:10:28.500Z,31.55
2017-07-26T06:12:56.130Z,30.92
2017-07-26T06:15:23.817Z,30.76
2017-07-26T06:17:51.431Z,31.11
2017-07-26T06:20:19.053Z,30.93
2017-07-26T06:22:46.751Z,29.90
2017-07-26T06:25:14.345Z,31.02
2017-07-26T06:27:41.975Z,31.00
2017-07-26T06:30:09.640Z,30.16
2017-07-26T06:32:37.441Z,29.36
2017-07-26T06:35:05.058Z,29.37
2017-07-26T06:37:32.850Z,29.10
2017-07-26T06:40:00.456Z,29.50
2017-07-26T06:42:28.105Z,30.52
2017-07-26T06:44:55.754Z,30.60
2017-07-26T06:47:23.376Z,29.43
2017-07-26T06:49:51.037Z,30.75
2017-07-26T06:52:18.695Z,28.90
2017-07-26T06:54:46.310Z,31.23
2017-07-26T06:57:13.932Z,31.94
2017-07-26T06:59:41.607Z,29.71
2017-07-26T07:02:09.224Z,30.72
2017-07-26T07:04:36.833Z,29.71
2017-07-26T07:07:04.523Z,29.67
2017-07-26T07:09:32.151Z,33.16
2017-07-26T07:11:59.762Z,32.92
2017-07-26T07:14:27.477Z,32.16
2017-07-26T07:16:55.096Z,28.94
2017-07-26T07:19:22.753Z,28.07
2017-07-26T07:21:50.424Z,29.76
2017-07-26T07:24:18.024Z,31.48
2017-07-26T07:26:45.640Z,30.71
2017-07-26T07:29:13.317Z,30.19
2017-07-26T07:31:40.919Z,30.91
2017-07-26T07:34:08.526Z,30.22
2017-07-26T07:36:36.262Z,30.66
2017-07-26T07:39:03.964Z,29.43
2017-07-26T07:41:31.642Z,29.42
2017-07-26T07:43:59.459Z,29.20
2017-07-26T07:46:27.090Z,30.54
2017-07-26T07:48:54.686Z,33.02
2017-07-26T07:51:22.364Z,32.39
2017-07-26T07:53:49.971Z,31.19
2017-07-26T07:56:17.587Z,30.97
2017-07-26T07:58:45.253Z,30.37
2017-07-26T08:01:12.858Z,30.24
2017-07-26T08:03:40.469Z,30.20
2017-07-26T08:06:08.140Z,29.97
2017-07-26T08:08:35.735Z,29.73
2017-07-26T08:11:03.461Z,28.38
2017-07-26T08:13:31.136Z,29.20
2017-07-26T08:15:58.748Z,28.42
2017-07-26T08:18:26.349Z,27.07
2017-07-26T08:20:54.018Z,26.14
2017-07-26T08:23:21.638Z,27.06
2017-07-26T08:25:49.249Z,30.13
2017-07-26T08:28:16.936Z,28.57
2017-07-26T08:30:44.549Z,26.48
2017-07-26T08:33:12.157Z,25.22
2017-07-26T08:35:40.019Z,26.38
2017-07-26T08:38:07.632Z,26.29
2017-07-26T08:40:35.251Z,25.83
2017-07-26T08:43:02.927Z,27.50
2017-07-26T08:45:30.531Z,26.96
2017-07-26T08:47:58.133Z,27.23
2017-07-26T08:50:25.805Z,29.22
2017-07-26T08:52:53.421Z,31.05
2017-07-26T08:55:21.032Z,30.42
2017-07-26T08:57:48.710Z,29.09
2017-07-26T09:00:16.317Z,28.76
2017-07-26T09:02:43.997Z,29.84
2017-07-26T09:05:11.668Z,28.22
2017-07-26T09:07:39.289Z,29.08
2017-07-26T09:10:06.952Z,29.50
2017-07-26T09:12:34.609Z,30.03
2017-07-26T09:15:02.209Z,30.48
2017-07-26T09:17:29.822Z,34.63
2017-07-26T09:19:57.494Z,32.96
2017-07-26T09:22:25.085Z,32.08
2017-07-26T09:24:52.699Z,32.50
2017-07-26T09:27:20.378Z,32.18
2017-07-26T09:29:47.987Z,33.47
2017-07-26T09:32:15.604Z,31.67
2017-07-26T09:34:43.274Z,32.59
2017-07-26T09:37:10.866Z,30.77
2017-07-26T09:39:38.476Z,30.87
2017-07-26T09:42:06.123Z,31.59
2017-07-26T09:44:34.031Z,32.49
2017-07-26T09:47:01.648Z,31.82
2017-07-26T09:49:29.337Z,32.28
2017-07-26T09:51:56.978Z,32.14
2017-07-26T09:54:24.592Z,32.66
2017-07-26T09:56:52.265Z,33.52
2017-07-26T09:59:19.889Z,32.24
2017-07-26T10:01:47.506Z,31.20
2017-07-26T10:04:15.172Z,30.77
2017-07-26T10:06:42.786Z,32.42
2017-07-26T10:09:10.403Z,35.46
2017-07-26T10:11:38.064Z,35.12
2017-07-26T10:14:05.686Z,34.34
2017-07-26T10:16:33.325Z,35.99
2017-07-26T10:19:01.160Z,33.57
2017-07-26T10:21:28.772Z,33.28
2017-07-26T10:23:56.375Z,31.53
2017-07-26T10:26:24.022Z,32.95
2017-07-26T10:28:51.655Z,31.77
2017-07-26T10:31:19.277Z,32.68
2017-07-26T10:33:46.928Z,32.23
2017-07-26T10:36:14.538Z,33.16
2017-07-26T10:38:42.141Z,33.73
2017-07-26T10:41:09.823Z,33.85
2017-07-26T10:43:37.451Z,32.91
2017-07-26T10:46:05.125Z,32.33
2017-07-26T10:48:32.816Z,32.64
2017-07-26T10:51:00.415Z,33.84
2017-07-26T10:53:28.101Z,35.83
2017-07-26T10:55:55.783Z,33.66
2017-07-26T10:58:23.381Z,31.59
2017-07-26T11:00:50.993Z,31.30
2017-07-26T11:03:18.657Z,32.05
2017-07-26T11:05:46.289Z,31.22
2017-07-26T11:08:13.889Z,32.65
2017-07-26T11:10:41.532Z,33.92
2017-07-26T11:13:09.146Z,35.53
2017-07-26T11:15:36.750Z,34.68
2017-07-26T11:18:04.488Z,35.27
2017-07-26T11:20:32.166Z,33.85
2017-07-26T11:22:59.783Z,33.38
2017-07-26T11:25:27.400Z,34.45
2017-07-26T11:27:55.068Z,34.92
2017-07-26T11:30:22.692Z,34.60
2017-07-26T11:32:50.314Z,35.12
2017-07-26T11:35:18.158Z,34.05
2017-07-26T11:37:45.979Z,35.79
2017-07-26T11:40:13.601Z,34.81
2017-07-26T11:42:41.276Z,35.58
2017-07-26T11:45:08.893Z,35.53
2017-07-26T11:47:36.556Z,38.87
2017-07-26T11:50:04.225Z,35.95
2017-07-26T11:52:31.847Z,34.64
2017-07-26T11:54:59.456Z,35.91
2017-07-26T11:57:27.132Z,35.57
2017-07-26T11:59:54.749Z,36.39
2017-07-26T12:02:22.396Z,36.00
2017-07-26T12:04:50.225Z,33.98
2017-07-26T12:07:17.824Z,35.10
2017-07-26T12:09:45.472Z,34.79
2017-07-26T12:12:13.136Z,33.58
2017-07-26T12:14:40.761Z,30.61
2017-07-26T12:17:08.387Z,32.85
2017-07-26T12:19:36.053Z,32.59
2017-07-26T12:22:03.648Z,33.21
2017-07-26T12:24:31.249Z,32.16
2017-07-26T12:26:58.915Z,34.46
2017-07-26T12:29:26.520Z,33.29
2017-07-26T12:31:54.156Z,34.69
2017-07-26T12:34:21.800Z,34.04
2017-07-26T12:36:49.456Z,33.61
2017-07-26T12:39:17.075Z,33.15
2017-07-26T12:41:44.838Z,32.40
2017-07-26T12:44:12.478Z,33.02
2017-07-26T12:46:40.128Z,34.46
2017-07-26T12:49:07.841Z,37.04
2017-07-26T12:51:35.525Z,38.40
2017-07-26T12:54:04.773Z,42.57
2017-07-26T12:56:32.812Z,42.72
2017-07-26T12:59:00.534Z,42.85
2017-07-26T13:01:28.526Z,44.92
2017-07-26T13:03:56.260Z,43.96
2017-07-26T13:06:23.873Z,44.00
2017-07-26T13:08:51.493Z,43.83
2017-07-26T13:11:19.236Z,44.74
2017-07-26T13:13:46.877Z,45.08
2017-07-26T13:16:14.518Z,47.58
2017-07-26T13:18:42.249Z,50.20
2017-07-26T13:21:09.833Z,52.18
2017-07-26T13:23:37.448Z,52.84
2017-07-26T13:26:05.165Z,53.02
2017-07-26T13:28:32.790Z,56.01
2017-07-26T13:31:00.454Z,57.99
2017-07-26T13:33:28.137Z,59.79
2017-07-26T13:35:55.753Z,63.59
2017-07-26T13:38:23.383Z,63.72
2017-07-26T13:40:51.039Z,66.60
2017-07-26T13:43:18.664Z,67.77
2017-07-26T13:45:46.272Z,70.00
2017-07-26T13:48:13.937Z,73.78
2017-07-26T13:50:41.541Z,72.93
2017-07-26T13:53:09.203Z,68.80
2017-07-26T13:55:36.897Z,72.59
2017-07-26T13:58:04.498Z,75.67
2017-07-26T14:00:32.102Z,76.45
2017-07-26T14:02:59.764Z,78.28
2017-07-26T14:05:27.373Z,79.49
2017-07-26T14:07:54.975Z,75.90
2017-07-26T14:10:22.638Z,75.25
2017-07-26T14:12:50.267Z,73.02
2017-07-26T14:15:17.899Z,73.33
2017-07-26T14:17:45.555Z,72.24
2017-07-26T14:20:13.172Z,73.80
2017-07-26T14:22:40.795Z,72.28
2017-07-26T14:25:08.593Z,71.77
2017-07-26T14:27:36.228Z,70.40
2017-07-26T14:30:03.856Z,72.50
2017-07-26T14:32:31.544Z,72.70
2017-07-26T14:35:03.906Z,74.26
2017-07-26T14:37:31.524Z,75.97
2017-07-26T14:39:59.144Z,75.40
2017-07-26T14:42:26.753Z,80.83
2017-07-26T14:44:54.436Z,82.39
2017-07-26T14:47:22.097Z,82.81
2017-07-26T14:49:49.706Z,81.19
2017-07-26T14:52:17.629Z,80.55
2017-07-26T14:54:45.248Z,79.59
2017-07-26T14:57:12.862Z,77.97
2017-07-26T14:59:40.572Z,81.90
2017-07-26T15:02:08.184Z,83.17
2017-07-26T15:04:35.776Z,84.80
2017-07-26T15:07:03.608Z,86.08
2017-07-26T15:09:31.239Z,85.44
2017-07-26T15:11:58.843Z,86.35
2017-07-26T15:14:26.510Z,87.12
2017-07-26T15:16:54.121Z,77.80
2017-07-26T15:19:21.715Z,76.81
2017-07-26T15:21:49.384Z,77.40
2017-07-26T15:24:16.991Z,76.59
2017-07-26T15:26:44.592Z,77.90
2017-07-26T15:29:12.353Z,79.35
2017-07-26T15:31:39.965Z,79.23
2017-07-26T15:34:07.753Z,79.57
2017-07-26T15:36:35.396Z,80.70
2017-07-26T15:39:03.000Z,79.98
2017-07-26T15:41:30.728Z,79.95
2017-07-26T15:43:58.541Z,78.85
2017-07-26T15:46:26.168Z,79.25
2017-07-26T15:48:53.780Z,79.55
2017-07-26T15:51:21.500Z,81.28
2017-07-26T15:53:49.104Z,83.88
2017-07-26T15:56:16.761Z,85.91
2017-07-26T15:58:44.424Z,85.20
2017-07-26T16:01:12.023Z,85.53
2017-07-26T16:03:39.612Z,84.36
2017-07-26T16:06:07.670Z,83.85
2017-07-26T16:08:35.366Z,82.41
2017-07-26T16:11:03.060Z,82.93
2017-07-26T16:13:30.706Z,83.47
2017-07-26T16:15:58.329Z,81.12
2017-07-26T16:18:25.935Z,81.17
2017-07-26T16:20:53.582Z,80.64
2017-07-26T16:23:21.175Z,81.35
2017-07-26T16:25:48.827Z,81.06
2017-07-26T16:28:16.493Z,82.14
2017-07-26T16:30:44.101Z,81.73
2017-07-26T16:33:11.711Z,81.92
2017-07-26T16:35:39.382Z,82.03
2017-07-26T16:38:07.000Z,82.30
2017-07-26T16:40:34.707Z,82.09
2017-07-26T16:43:02.359Z,82.63
2017-07-26T16:45:29.976Z,81.19
2017-07-26T16:47:57.604Z,81.80
2017-07-26T16:50:25.260Z,80.81
2017-07-26T16:52:52.877Z,81.40
2017-07-26T16:55:20.478Z,81.40
2017-07-26T16:57:48.172Z,81.60
2017-07-26T17:00:15.766Z,80.88
2017-07-26T17:02:43.366Z,78.71
2017-07-26T17:05:11.232Z,80.16
2017-07-26T17:07:38.831Z,80.89
2017-07-26T17:10:06.416Z,81.38
2017-07-26T17:12:34.174Z,81.59
2017-07-26T17:15:01.838Z,81.98
2017-07-26T17:17:29.495Z,81.91
2017-07-26T17:19:57.367Z,82.39
2017-07-26T17:22:25.023Z,82.07
2017-07-26T17:24:52.705Z,84.18
2017-07-26T17:27:20.585Z,83.65
2017-07-26T17:29:48.403Z,83.77
2017-07-26T17:32:16.087Z,83.12
2017-07-26T17:34:43.958Z,83.88
2017-07-26T17:37:11.610Z,81.87
2017-07-26T17:39:39.472Z,81.13
2017-07-26T17:42:07.138Z,82.24
2017-07-26T17:44:34.804Z,81.50
2017-07-26T17:47:02.495Z,82.13
2017-07-26T17:49:30.157Z,82.61
2017-07-26T17:51:57.979Z,82.14
2017-07-26T17:54:25.843Z,82.55
2017-07-26T17:56:53.931Z,81.00
2017-07-26T17:59:21.901Z,82.11
2017-07-26T18:01:49.849Z,84.97
2017-07-26T18:04:17.740Z,85.00
2017-07-26T18:06:45.580Z,85.71
2017-07-26T18:09:13.326Z,83.89
2017-07-26T18:11:41.139Z,82.80
2017-07-26T18:14:08.781Z,83.29
2017-07-26T18:16:36.459Z,83.42
2017-07-26T18:19:04.358Z,83.13
2017-07-26T18:21:32.202Z,82.65
2017-07-26T18:24:00.045Z,83.38
2017-07-26T18:26:27.698Z,83.92
2017-07-26T18:28:55.288Z,84.44
2017-07-26T18:31:22.892Z,83.68
2017-07-26T18:33:50.917Z,83.59
2017-07-26T18:36:18.763Z,84.07
2017-07-26T18:38:46.451Z,83.78
2017-07-26T18:41:14.305Z,84.29
2017-07-26T18:43:42.036Z,84.92
2017-07-26T18:46:10.000Z,84.48
2017-07-26T18:48:37.869Z,83.63
2017-07-26T18:51:05.684Z,82.54
2017-07-26T18:53:33.439Z,82.44
2017-07-26T18:56:01.499Z,82.88
2017-07-26T18:58:29.217Z,82.41
2017-07-26T19:00:56.880Z,85.44
2017-07-26T19:03:24.673Z,86.20
2017-07-26T19:05:52.567Z,84.25
2017-07-26T19:08:20.231Z,85.30
2017-07-26T19:10:48.301Z,85.22
2017-07-26T19:13:16.039Z,85.88
2017-07-26T19:15:43.690Z,87.18
2017-07-26T19:18:11.796Z,89.17
2017-07-26T19:20:39.466Z,88.72
2017-07-26T19:23:07.374Z,88.72
2017-07-26T19:25:35.032Z,88.64
2017-07-26T19:28:03.046Z,88.96
2017-07-26T19:30:30.936Z,89.41
2017-07-26T19:32:58.608Z,90.20
2017-07-26T19:35:26.253Z,90.10
2017-07-26T19:37:53.899Z,89.34
2017-07-26T19:40:21.778Z,90.14
2017-07-26T19:42:49.432Z,90.71
2017-07-26T19:45:17.287Z,89.57
2017-07-26T19:47:45.028Z,88.83
2017-07-26T19:50:12.842Z,89.35
2017-07-26T19:52:40.510Z,90.04
2017-07-26T19:55:08.354Z,90.20
2017-07-26T19:57:36.094Z,90.49
2017-07-26T20:00:03.885Z,91.19
2017-07-26T20:02:33.150Z,90.54
2017-07-26T20:05:01.275Z,89.71
2017-07-26T20:07:28.935Z,89.20
2017-07-26T20:09:56.641Z,89.58
2017-07-26T20:12:25.303Z,89.77
2017-07-26T20:14:54.442Z,89.52
2017-07-26T20:17:22.168Z,89.72
2017-07-26T20:19:49.779Z,89.22
2017-07-26T20:22:17.456Z,88.90
2017-07-26T20:24:45.040Z,89.43
2017-07-26T20:27:13.049Z,88.57
2017-07-26T20:29:40.727Z,88.80
2017-07-26T20:32:08.313Z,90.67
2017-07-26T20:34:35.910Z,90.44
2017-07-26T20:37:03.746Z,90.90
2017-07-26T20:39:31.352Z,90.73
2017-07-26T20:41:58.958Z,91.65
2017-07-26T20:44:26.606Z,91.25
2017-07-26T20:46:54.194Z,91.68
2017-07-26T20:49:21.789Z,91.26
2017-07-26T20:51:49.433Z,91.39
2017-07-26T20:54:17.057Z,90.98
2017-07-26T20:56:44.680Z,91.07
2017-07-26T20:59:12.698Z,90.47
2017-07-26T21:01:40.414Z,90.05
2017-07-26T21:04:08.091Z,90.88
2017-07-26T21:06:36.097Z,91.60
2017-07-26T21:09:04.579Z,90.44
2017-07-26T21:11:32.813Z,90.31
2017-07-26T21:14:01.337Z,90.78
2017-07-26T21:16:29.070Z,90.97
2017-07-26T21:18:58.262Z,91.94
2017-07-26T21:21:26.372Z,92.17
2017-07-26T21:23:54.441Z,92.29
2017-07-26T21:26:22.682Z,92.34
2017-07-26T21:28:50.794Z,92.43
2017-07-26T21:31:18.641Z,91.78
2017-07-26T21:33:46.250Z,91.92
2017-07-26T21:36:13.908Z,90.93
2017-07-26T21:38:41.642Z,91.25
2017-07-26T21:41:09.304Z,91.62
2017-07-26T21:43:36.969Z,90.95
2017-07-26T21:46:04.621Z,92.18
2017-07-26T21:48:32.290Z,92.69
2017-07-26T21:51:00.158Z,92.78
2017-07-26T21:53:27.823Z,92.81
2017-07-26T21:55:55.663Z,92.20
2017-07-26T21:58:23.329Z,91.87
2017-07-26T22:00:51.018Z,91.36
2017-07-26T22:03:18.790Z,91.41
2017-07-26T22:05:46.528Z,91.46
2017-07-26T22:08:14.551Z,91.87
2017-07-26T22:10:42.486Z,92.13
2017-07-26T22:13:10.146Z,92.29
2017-07-26T22:15:37.806Z,91.87
2017-07-26T22:18:05.517Z,91.42
2017-07-26T22:20:33.540Z,91.41
2017-07-26T22:23:01.375Z,91.33
2017-07-26T22:25:29.276Z,91.67
2017-07-26T22:27:57.214Z,92.04
2017-07-26T22:30:24.882Z,91.96
2017-07-26T22:32:52.669Z,92.40
2017-07-26T22:35:20.311Z,92.32
2017-07-26T22:37:48.178Z,92.67
2017-07-26T22:40:15.920Z,92.74
2017-07-26T22:42:43.921Z,92.64
2017-07-26T22:45:11.804Z,92.42
2017-07-26T22:47:39.550Z,91.90
2017-07-26T22:50:07.330Z,91.23
2017-07-26T22:52:34.993Z,91.71
2017-07-26T22:55:02.701Z,91.43
2017-07-26T22:57:30.688Z,91.66
2017-07-26T22:59:58.304Z,91.46
2017-07-26T23:02:25.899Z,91.95
2017-07-26T23:04:53.548Z,92.02
2017-07-26T23:07:21.221Z,92.14
2017-07-26T23:09:48.862Z,90.74
2017-07-26T23:12:16.514Z,91.88
2017-07-26T23:14:44.120Z,90.63
2017-07-26T23:17:11.731Z,90.08
2017-07-26T23:19:39.400Z,90.20
2017-07-26T23:22:06.995Z,90.79
2017-07-26T23:24:34.825Z,92.24
2017-07-26T23:27:02.642Z,92.86
2017-07-26T23:29:30.387Z,92.46
2017-07-26T23:31:58.197Z,92.70
2017-07-26T23:34:25.844Z,92.33
2017-07-26T23:36:53.438Z,92.14
2017-07-26T23:39:21.037Z,92.39
2017-07-26T23:41:48.847Z,92.13
2017-07-26T23:44:16.471Z,92.14
2017-07-26T23:46:44.092Z,92.29
2017-07-26T23:49:11.754Z,92.79
2017-07-26T23:51:39.415Z,92.60
2017-07-26T23:54:07.029Z,92.48
2017-07-26T23:56:34.877Z,92.66
2017-07-26T23:59:02.843Z,93.33
